sensor_id;sensor_type;location;lat;lon;timestamp;pressure;altitude;pressure_sealevel;temperature;humidity
4570;BME280;2297;51.442;6.996;2023-05-31T00:01:18;101244.88;;;16.54;45.35
4570;BME280;2297;51.442;6.996;2023-05-31T00:03:44;101245.06;;;16.47;45.66
4570;BME280;2297;51.442;6.996;2023-05-31T00:06:11;101249.59;;;16.45;45.48
4570;BME280;2297;51.442;6.996;2023-05-31T00:08:41;101247.78;;;16.46;45.56
4570;BME280;2297;51.442;6.996;2023-05-31T00:11:09;101244.34;;;16.42;45.62
4570;BME280;2297;51.442;6.996;2023-05-31T00:13:36;101242.72;;;16.37;45.84
4570;BME280;2297;51.442;6.996;2023-05-31T00:16:04;101245.47;;;16.35;45.93
4570;BME280;2297;51.442;6.996;2023-05-31T00:18:30;101239.44;;;16.28;45.82
4570;BME280;2297;51.442;6.996;2023-05-31T00:20:57;101242.28;;;16.22;46.22
4570;BME280;2297;51.442;6.996;2023-05-31T00:23:24;101246.75;;;16.22;46.13
4570;BME280;2297;51.442;6.996;2023-05-31T00:25:50;101256.50;;;16.23;46.01
4570;BME280;2297;51.442;6.996;2023-05-31T00:28:18;101249.47;;;16.19;46.05
4570;BME280;2297;51.442;6.996;2023-05-31T00:30:45;101255.97;;;16.10;46.48
4570;BME280;2297;51.442;6.996;2023-05-31T00:33:11;101248.03;;;16.08;46.60
4570;BME280;2297;51.442;6.996;2023-05-31T00:35:38;101248.19;;;16.02;46.56
4570;BME280;2297;51.442;6.996;2023-05-31T00:38:06;101249.03;;;16.04;46.68
4570;BME280;2297;51.442;6.996;2023-05-31T00:40:32;101245.25;;;16.11;46.36
4570;BME280;2297;51.442;6.996;2023-05-31T00:42:59;101242.69;;;16.08;46.57
4570;BME280;2297;51.442;6.996;2023-05-31T00:45:27;101243.72;;;16.04;46.40
4570;BME280;2297;51.442;6.996;2023-05-31T00:47:55;101246.38;;;16.04;46.40
4570;BME280;2297;51.442;6.996;2023-05-31T00:50:22;101250.03;;;16.00;46.63
4570;BME280;2297;51.442;6.996;2023-05-31T00:52:50;101250.09;;;15.97;46.59
4570;BME280;2297;51.442;6.996;2023-05-31T00:55:17;101257.44;;;15.89;46.80
4570;BME280;2297;51.442;6.996;2023-05-31T00:57:44;101251.31;;;15.85;47.07
4570;BME280;2297;51.442;6.996;2023-05-31T01:00:12;101260.13;;;15.87;46.82
4570;BME280;2297;51.442;6.996;2023-05-31T01:02:41;101258.38;;;15.86;47.24
4570;BME280;2297;51.442;6.996;2023-05-31T01:05:08;101251.41;;;15.82;47.06
4570;BME280;2297;51.442;6.996;2023-05-31T01:07:36;101250.75;;;15.72;47.62
4570;BME280;2297;51.442;6.996;2023-05-31T01:10:04;101250.59;;;15.78;47.10
4570;BME280;2297;51.442;6.996;2023-05-31T01:12:51;101251.66;;;15.73;47.48
4570;BME280;2297;51.442;6.996;2023-05-31T01:15:22;101252.72;;;15.67;47.31
4570;BME280;2297;51.442;6.996;2023-05-31T01:17:54;101253.03;;;15.55;47.93
4570;BME280;2297;51.442;6.996;2023-05-31T01:20:27;101251.16;;;15.58;47.71
4570;BME280;2297;51.442;6.996;2023-05-31T01:23:06;101245.69;;;15.63;47.74
4570;BME280;2297;51.442;6.996;2023-05-31T01:26:02;101247.66;;;15.56;47.95
4570;BME280;2297;51.442;6.996;2023-05-31T01:28:35;101252.88;;;15.61;47.76
4570;BME280;2297;51.442;6.996;2023-05-31T01:31:07;101244.28;;;15.50;47.86
4570;BME280;2297;51.442;6.996;2023-05-31T01:33:34;101247.03;;;15.46;48.23
4570;BME280;2297;51.442;6.996;2023-05-31T01:36:02;101240.81;;;15.47;47.96
4570;BME280;2297;51.442;6.996;2023-05-31T01:38:29;101242.47;;;15.52;48.13
4570;BME280;2297;51.442;6.996;2023-05-31T01:40:56;101239.00;;;15.48;48.39
4570;BME280;2297;51.442;6.996;2023-05-31T01:43:25;101240.81;;;15.47;48.17
4570;BME280;2297;51.442;6.996;2023-05-31T01:45:54;101249.59;;;15.50;48.21
4570;BME280;2297;51.442;6.996;2023-05-31T01:48:22;101242.94;;;15.33;48.32
4570;BME280;2297;51.442;6.996;2023-05-31T01:50:50;101256.31;;;15.32;48.73
4570;BME280;2297;51.442;6.996;2023-05-31T01:53:17;101255.41;;;15.31;48.57
4570;BME280;2297;51.442;6.996;2023-05-31T01:55:44;101250.03;;;15.34;48.47
4570;BME280;2297;51.442;6.996;2023-05-31T01:58:11;101252.75;;;15.31;48.40
4570;BME280;2297;51.442;6.996;2023-05-31T02:00:40;101245.63;;;15.33;48.56
4570;BME280;2297;51.442;6.996;2023-05-31T02:03:09;101253.75;;;15.27;48.71
4570;BME280;2297;51.442;6.996;2023-05-31T02:05:36;101249.38;;;15.24;49.01
4570;BME280;2297;51.442;6.996;2023-05-31T02:08:02;101248.50;;;15.24;48.58
4570;BME280;2297;51.442;6.996;2023-05-31T02:10:29;101252.16;;;15.20;48.98
4570;BME280;2297;51.442;6.996;2023-05-31T02:12:56;101256.63;;;15.18;49.00
4570;BME280;2297;51.442;6.996;2023-05-31T02:15:23;101257.75;;;15.07;49.11
4570;BME280;2297;51.442;6.996;2023-05-31T02:17:49;101252.59;;;15.01;49.37
4570;BME280;2297;51.442;6.996;2023-05-31T02:20:18;101261.56;;;14.97;49.37
4570;BME280;2297;51.442;6.996;2023-05-31T02:22:46;101249.53;;;14.80;49.89
4570;BME280;2297;51.442;6.996;2023-05-31T02:25:13;101249.31;;;14.90;49.74
4570;BME280;2297;51.442;6.996;2023-05-31T02:27:41;101244.88;;;14.90;49.58
4570;BME280;2297;51.442;6.996;2023-05-31T02:30:09;101250.97;;;14.94;49.80
4570;BME280;2297;51.442;6.996;2023-05-31T02:32:39;101252.78;;;14.93;49.57
4570;BME280;2297;51.442;6.996;2023-05-31T02:35:08;101253.09;;;14.79;50.01
4570;BME280;2297;51.442;6.996;2023-05-31T02:37:37;101261.13;;;14.78;50.10
4570;BME280;2297;51.442;6.996;2023-05-31T02:40:05;101255.84;;;14.76;50.04
4570;BME280;2297;51.442;6.996;2023-05-31T02:42:34;101256.81;;;14.72;50.22
4570;BME280;2297;51.442;6.996;2023-05-31T02:45:00;101259.44;;;14.74;50.05
4570;BME280;2297;51.442;6.996;2023-05-31T02:47:27;101253.38;;;14.67;50.50
4570;BME280;2297;51.442;6.996;2023-05-31T02:49:54;101256.81;;;14.72;50.12
4570;BME280;2297;51.442;6.996;2023-05-31T02:52:21;101251.59;;;14.69;50.51
4570;BME280;2297;51.442;6.996;2023-05-31T02:54:50;101253.34;;;14.69;50.52
4570;BME280;2297;51.442;6.996;2023-05-31T02:57:16;101247.25;;;14.65;50.64
4570;BME280;2297;51.442;6.996;2023-05-31T02:59:43;101252.75;;;14.57;50.54
4570;BME280;2297;51.442;6.996;2023-05-31T03:02:10;101256.94;;;14.66;50.70
4570;BME280;2297;51.442;6.996;2023-05-31T03:04:36;101253.47;;;14.64;50.64
4570;BME280;2297;51.442;6.996;2023-05-31T03:07:03;101249.91;;;14.65;50.68
4570;BME280;2297;51.442;6.996;2023-05-31T03:09:30;101251.72;;;14.63;50.67
4570;BME280;2297;51.442;6.996;2023-05-31T03:11:58;101250.13;;;14.54;50.63
4570;BME280;2297;51.442;6.996;2023-05-31T03:14:24;101244.84;;;14.53;50.70
4570;BME280;2297;51.442;6.996;2023-05-31T03:16:51;101238.84;;;14.44;50.91
4570;BME280;2297;51.442;6.996;2023-05-31T03:19:18;101237.03;;;14.46;50.96
4570;BME280;2297;51.442;6.996;2023-05-31T03:21:44;101240.69;;;14.41;51.16
4570;BME280;2297;51.442;6.996;2023-05-31T03:24:11;101238.88;;;14.43;51.15
4570;BME280;2297;51.442;6.996;2023-05-31T03:26:37;101239.75;;;14.43;51.21
4570;BME280;2297;51.442;6.996;2023-05-31T03:29:05;101228.19;;;14.46;50.93
4570;BME280;2297;51.442;6.996;2023-05-31T03:31:32;101224.63;;;14.47;51.12
4570;BME280;2297;51.442;6.996;2023-05-31T03:33:59;101224.50;;;14.52;50.75
4570;BME280;2297;51.442;6.996;2023-05-31T03:36:26;101220.25;;;14.44;50.83
4570;BME280;2297;51.442;6.996;2023-05-31T03:38:53;101225.44;;;14.51;51.08
4570;BME280;2297;51.442;6.996;2023-05-31T03:41:20;101221.19;;;14.42;51.08
4570;BME280;2297;51.442;6.996;2023-05-31T03:43:46;101234.47;;;14.42;51.00
4570;BME280;2297;51.442;6.996;2023-05-31T03:46:17;101234.47;;;14.42;51.26
4570;BME280;2297;51.442;6.996;2023-05-31T03:48:44;101235.19;;;14.49;51.17
4570;BME280;2297;51.442;6.996;2023-05-31T03:51:10;101231.69;;;14.48;50.94
4570;BME280;2297;51.442;6.996;2023-05-31T03:53:42;101231.94;;;14.37;51.53
4570;BME280;2297;51.442;6.996;2023-05-31T03:56:09;101233.56;;;14.43;51.32
4570;BME280;2297;51.442;6.996;2023-05-31T03:58:36;101241.41;;;14.47;51.10
4570;BME280;2297;51.442;6.996;2023-05-31T04:01:02;101238.75;;;14.47;51.06
4570;BME280;2297;51.442;6.996;2023-05-31T04:03:31;101237.22;;;14.39;51.29
4570;BME280;2297;51.442;6.996;2023-05-31T04:05:57;101246.84;;;14.43;51.33
4570;BME280;2297;51.442;6.996;2023-05-31T04:08:24;101242.56;;;14.37;51.24
4570;BME280;2297;51.442;6.996;2023-05-31T04:10:50;101245.06;;;14.43;51.29
4570;BME280;2297;51.442;6.996;2023-05-31T04:13:17;101242.41;;;14.43;51.31
4570;BME280;2297;51.442;6.996;2023-05-31T04:15:43;101235.19;;;14.49;51.25
4570;BME280;2297;51.442;6.996;2023-05-31T04:18:10;101232.91;;;14.32;51.76
4570;BME280;2297;51.442;6.996;2023-05-31T04:20:38;101225.75;;;14.35;51.35
4570;BME280;2297;51.442;6.996;2023-05-31T04:23:05;101231.94;;;14.36;51.34
4570;BME280;2297;51.442;6.996;2023-05-31T04:25:31;101231.09;;;14.35;51.48
4570;BME280;2297;51.442;6.996;2023-05-31T04:27:58;101236.47;;;14.32;51.86
4570;BME280;2297;51.442;6.996;2023-05-31T04:30:25;101241.63;;;14.38;51.80
4570;BME280;2297;51.442;6.996;2023-05-31T04:32:52;101240.66;;;14.44;51.31
4570;BME280;2297;51.442;6.996;2023-05-31T04:35:22;101235.28;;;14.45;51.49
4570;BME280;2297;51.442;6.996;2023-05-31T04:37:50;101231.69;;;14.48;51.19
4570;BME280;2297;51.442;6.996;2023-05-31T04:40:17;101234.44;;;14.43;51.33
4570;BME280;2297;51.442;6.996;2023-05-31T04:42:45;101231.72;;;14.45;51.31
4570;BME280;2297;51.442;6.996;2023-05-31T04:45:11;101231.00;;;14.40;51.57
4570;BME280;2297;51.442;6.996;2023-05-31T04:47:38;101231.69;;;14.48;51.53
4570;BME280;2297;51.442;6.996;2023-05-31T04:50:05;101237.78;;;14.52;51.38
4570;BME280;2297;51.442;6.996;2023-05-31T04:52:32;101231.72;;;14.46;51.45
4570;BME280;2297;51.442;6.996;2023-05-31T04:55:01;101234.38;;;14.46;51.69
4570;BME280;2297;51.442;6.996;2023-05-31T04:57:28;101236.09;;;14.47;51.69
4570;BME280;2297;51.442;6.996;2023-05-31T04:59:55;101236.09;;;14.47;51.55
4570;BME280;2297;51.442;6.996;2023-05-31T05:02:22;101234.19;;;14.56;51.58
4570;BME280;2297;51.442;6.996;2023-05-31T05:04:49;101230.53;;;14.60;51.35
4570;BME280;2297;51.442;6.996;2023-05-31T05:07:16;101224.38;;;14.58;51.56
4570;BME280;2297;51.442;6.996;2023-05-31T05:09:43;101224.16;;;14.67;51.20
4570;BME280;2297;51.442;6.996;2023-05-31T05:12:11;101230.44;;;14.63;51.25
4570;BME280;2297;51.442;6.996;2023-05-31T05:14:56;101234.91;;;14.62;51.49
4570;BME280;2297;51.442;6.996;2023-05-31T05:17:23;101245.31;;;14.72;51.17
4570;BME280;2297;51.442;6.996;2023-05-31T05:19:49;101235.41;;;14.78;51.04
4570;BME280;2297;51.442;6.996;2023-05-31T05:22:17;101240.78;;;14.75;51.12
4570;BME280;2297;51.442;6.996;2023-05-31T05:24:43;101249.69;;;14.74;51.44
4570;BME280;2297;51.442;6.996;2023-05-31T05:27:12;101244.06;;;14.87;51.12
4570;BME280;2297;51.442;6.996;2023-05-31T05:29:39;101250.22;;;14.90;50.96
4570;BME280;2297;51.442;6.996;2023-05-31T05:32:07;101241.28;;;14.91;50.78
4570;BME280;2297;51.442;6.996;2023-05-31T05:34:33;101245.53;;;15.00;50.66
4570;BME280;2297;51.442;6.996;2023-05-31T05:37:00;101247.28;;;15.01;50.93
4570;BME280;2297;51.442;6.996;2023-05-31T05:39:27;101239.97;;;15.09;50.62
4570;BME280;2297;51.442;6.996;2023-05-31T05:41:54;101237.22;;;15.14;50.51
4570;BME280;2297;51.442;6.996;2023-05-31T05:44:22;101247.72;;;15.20;50.19
4570;BME280;2297;51.442;6.996;2023-05-31T05:46:49;101239.63;;;15.23;50.27
4570;BME280;2297;51.442;6.996;2023-05-31T05:49:16;101237.78;;;15.27;50.17
4570;BME280;2297;51.442;6.996;2023-05-31T05:51:42;101235.97;;;15.29;50.35
4570;BME280;2297;51.442;6.996;2023-05-31T05:54:09;101238.69;;;15.26;50.23
4570;BME280;2297;51.442;6.996;2023-05-31T05:56:35;101248.44;;;15.27;50.30
4570;BME280;2297;51.442;6.996;2023-05-31T05:59:02;101250.09;;;15.31;50.20
4570;BME280;2297;51.442;6.996;2023-05-31T06:01:30;101246.44;;;15.35;50.18
4570;BME280;2297;51.442;6.996;2023-05-31T06:03:57;101249.94;;;15.37;50.28
4570;BME280;2297;51.442;6.996;2023-05-31T06:06:23;101249.78;;;15.43;50.23
4570;BME280;2297;51.442;6.996;2023-05-31T06:08:51;101248.69;;;15.51;50.21
4570;BME280;2297;51.442;6.996;2023-05-31T06:11:18;101243.88;;;15.65;49.80
4570;BME280;2297;51.442;6.996;2023-05-31T06:13:45;101250.75;;;15.72;49.47
4570;BME280;2297;51.442;6.996;2023-05-31T06:16:13;101250.59;;;15.78;49.18
4570;BME280;2297;51.442;6.996;2023-05-31T06:18:41;101249.59;;;15.83;48.95
4570;BME280;2297;51.442;6.996;2023-05-31T06:21:07;101253.91;;;15.87;48.93
4570;BME280;2297;51.442;6.996;2023-05-31T06:23:34;101248.34;;;15.96;48.91
4570;BME280;2297;51.442;6.996;2023-05-31T06:26:01;101252.69;;;16.00;48.93
4570;BME280;2297;51.442;6.996;2023-05-31T06:28:27;101246.88;;;15.86;49.05
4570;BME280;2297;51.442;6.996;2023-05-31T06:30:54;101246.38;;;16.04;48.70
4570;BME280;2297;51.442;6.996;2023-05-31T06:33:21;101240.94;;;16.07;48.79
4570;BME280;2297;51.442;6.996;2023-05-31T06:35:50;101239.09;;;16.09;48.80
4570;BME280;2297;51.442;6.996;2023-05-31T06:38:16;101241.69;;;16.12;48.51
4570;BME280;2297;51.442;6.996;2023-05-31T06:40:43;101253.09;;;16.18;48.65
4570;BME280;2297;51.442;6.996;2023-05-31T06:43:10;101248.44;;;16.24;48.36
4570;BME280;2297;51.442;6.996;2023-05-31T06:45:36;101240.31;;;16.29;48.19
4570;BME280;2297;51.442;6.996;2023-05-31T06:51:29;101236.72;;;16.30;48.06
4570;BME280;2297;51.442;6.996;2023-05-31T06:53:56;101240.97;;;16.36;47.98
4570;BME280;2297;51.442;6.996;2023-05-31T06:56:23;101240.91;;;16.39;48.12
4570;BME280;2297;51.442;6.996;2023-05-31T06:58:51;101236.97;;;16.51;48.11
4570;BME280;2297;51.442;6.996;2023-05-31T07:01:17;101241.50;;;16.49;48.11
4570;BME280;2297;51.442;6.996;2023-05-31T07:03:44;101242.44;;;16.18;48.33
4570;BME280;2297;51.442;6.996;2023-05-31T07:06:11;101244.09;;;16.50;48.04
4570;BME280;2297;51.442;6.996;2023-05-31T07:08:39;101244.78;;;16.57;47.86
4570;BME280;2297;51.442;6.996;2023-05-31T07:11:05;101245.38;;;16.67;47.63
4570;BME280;2297;51.442;6.996;2023-05-31T07:13:32;101234.38;;;16.77;47.24
4570;BME280;2297;51.442;6.996;2023-05-31T07:15:58;101235.00;;;16.86;47.17
4570;BME280;2297;51.442;6.996;2023-05-31T07:18:25;101234.81;;;16.92;46.93
4570;BME280;2297;51.442;6.996;2023-05-31T07:20:52;101237.22;;;17.00;46.73
4570;BME280;2297;51.442;6.996;2023-05-31T07:23:21;101231.75;;;17.04;46.86
4570;BME280;2297;51.442;6.996;2023-05-31T07:25:49;101233.25;;;17.13;46.54
4570;BME280;2297;51.442;6.996;2023-05-31T07:28:16;101232.16;;;17.19;46.46
4570;BME280;2297;51.442;6.996;2023-05-31T07:30:43;101236.41;;;17.24;46.33
4570;BME280;2297;51.442;6.996;2023-05-31T07:33:09;101228.00;;;17.35;46.04
4570;BME280;2297;51.442;6.996;2023-05-31T07:35:36;101231.50;;;17.37;45.84
4570;BME280;2297;51.442;6.996;2023-05-31T07:38:02;101227.81;;;17.41;45.88
4570;BME280;2297;51.442;6.996;2023-05-31T07:40:29;101228.78;;;17.39;45.83
4570;BME280;2297;51.442;6.996;2023-05-31T07:42:57;101227.63;;;17.46;45.57
4570;BME280;2297;51.442;6.996;2023-05-31T07:45:24;101232.69;;;17.54;45.58
4570;BME280;2297;51.442;6.996;2023-05-31T07:47:51;101225.28;;;17.62;45.46
4570;BME280;2297;51.442;6.996;2023-05-31T07:50:17;101224.31;;;17.66;45.42
4570;BME280;2297;51.442;6.996;2023-05-31T07:52:44;101225.69;;;17.76;45.25
4570;BME280;2297;51.442;6.996;2023-05-31T07:55:14;101225.25;;;17.89;44.96
4570;BME280;2297;51.442;6.996;2023-05-31T07:57:41;101223.94;;;17.99;44.77
4570;BME280;2297;51.442;6.996;2023-05-31T08:00:10;101225.81;;;17.97;44.81
4570;BME280;2297;51.442;6.996;2023-05-31T08:02:38;101220.25;;;18.03;44.35
4570;BME280;2297;51.442;6.996;2023-05-31T08:05:06;101220.34;;;18.00;44.13
4570;BME280;2297;51.442;6.996;2023-05-31T08:07:33;101219.03;;;18.12;43.85
4570;BME280;2297;51.442;6.996;2023-05-31T08:09:59;101216.91;;;18.20;43.73
4570;BME280;2297;51.442;6.996;2023-05-31T08:12:26;101215.56;;;18.32;43.63
4570;BME280;2297;51.442;6.996;2023-05-31T08:14:53;101217.19;;;18.36;43.36
4570;BME280;2297;51.442;6.996;2023-05-31T08:17:33;101218.59;;;18.47;42.89
4570;BME280;2297;51.442;6.996;2023-05-31T08:19:59;101217.16;;;18.60;42.65
4570;BME280;2297;51.442;6.996;2023-05-31T08:22:26;101206.38;;;18.63;42.82
4570;BME280;2297;51.442;6.996;2023-05-31T08:24:53;101212.66;;;18.62;43.04
4570;BME280;2297;51.442;6.996;2023-05-31T08:27:19;101206.53;;;18.81;42.51
4570;BME280;2297;51.442;6.996;2023-05-31T08:29:47;101217.00;;;18.87;42.25
4570;BME280;2297;51.442;6.996;2023-05-31T08:32:14;101208.59;;;18.96;42.16
4570;BME280;2297;51.442;6.996;2023-05-31T08:34:42;101211.81;;;19.04;41.53
4570;BME280;2297;51.442;6.996;2023-05-31T08:37:11;101215.09;;;19.11;41.62
4570;BME280;2297;51.442;6.996;2023-05-31T08:39:37;101200.47;;;19.18;41.36
4570;BME280;2297;51.442;6.996;2023-05-31T08:42:07;101192.31;;;19.23;41.38
4570;BME280;2297;51.442;6.996;2023-05-31T08:44:36;101194.16;;;19.21;40.49
4570;BME280;2297;51.442;6.996;2023-05-31T08:47:07;101196.97;;;19.38;39.93
4570;BME280;2297;51.442;6.996;2023-05-31T08:49:35;101195.50;;;19.31;40.21
4570;BME280;2297;51.442;6.996;2023-05-31T08:52:04;101198.16;;;19.52;39.79
4570;BME280;2297;51.442;6.996;2023-05-31T08:54:32;101200.78;;;19.53;39.57
4570;BME280;2297;51.442;6.996;2023-05-31T08:57:00;101200.22;;;19.66;38.83
4570;BME280;2297;51.442;6.996;2023-05-31T08:59:28;101197.75;;;19.61;37.72
4570;BME280;2297;51.442;6.996;2023-05-31T09:01:56;101203.50;;;19.72;38.11
4570;BME280;2297;51.442;6.996;2023-05-31T09:04:26;101196.88;;;19.81;38.09
4570;BME280;2297;51.442;6.996;2023-05-31T09:06:52;101195.97;;;19.81;37.52
4570;BME280;2297;51.442;6.996;2023-05-31T09:09:20;101191.53;;;20.00;36.93
4570;BME280;2297;51.442;6.996;2023-05-31T09:11:47;101181.78;;;20.18;37.07
4570;BME280;2297;51.442;6.996;2023-05-31T09:14:14;101191.81;;;20.32;37.01
4570;BME280;2297;51.442;6.996;2023-05-31T09:16:41;101187.09;;;20.37;36.46
4570;BME280;2297;51.442;6.996;2023-05-31T09:19:07;101182.56;;;20.20;35.49
4570;BME280;2297;51.442;6.996;2023-05-31T09:21:38;101192.19;;;20.43;35.22
4570;BME280;2297;51.442;6.996;2023-05-31T09:24:06;101182.72;;;20.54;35.06
4570;BME280;2297;51.442;6.996;2023-05-31T09:26:34;101180.69;;;20.59;35.67
4570;BME280;2297;51.442;6.996;2023-05-31T09:29:01;101176.47;;;20.72;35.31
4570;BME280;2297;51.442;6.996;2023-05-31T09:31:27;101167.34;;;20.76;35.06
4570;BME280;2297;51.442;6.996;2023-05-31T09:33:54;101172.06;;;20.89;34.79
4570;BME280;2297;51.442;6.996;2023-05-31T09:36:25;101164.00;;;21.06;34.28
4570;BME280;2297;51.442;6.996;2023-05-31T09:38:58;101159.91;;;21.17;33.75
4570;BME280;2297;51.442;6.996;2023-05-31T09:41:28;101158.00;;;21.19;33.73
4570;BME280;2297;51.442;6.996;2023-05-31T09:43:56;101160.09;;;21.14;32.88
4570;BME280;2297;51.442;6.996;2023-05-31T09:46:23;101162.28;;;21.05;33.04
4570;BME280;2297;51.442;6.996;2023-05-31T09:48:58;101155.72;;;21.28;33.07
4570;BME280;2297;51.442;6.996;2023-05-31T09:51:25;101152.13;;;21.28;31.74
4570;BME280;2297;51.442;6.996;2023-05-31T09:53:52;101153.44;;;21.38;31.04
4570;BME280;2297;51.442;6.996;2023-05-31T09:56:23;101158.47;;;21.44;31.53
4570;BME280;2297;51.442;6.996;2023-05-31T09:58:51;101146.84;;;21.44;30.64
4570;BME280;2297;51.442;6.996;2023-05-31T10:01:19;101138.06;;;21.58;29.83
4570;BME280;2297;51.442;6.996;2023-05-31T10:03:47;101143.47;;;21.74;29.88
4570;BME280;2297;51.442;6.996;2023-05-31T10:06:16;101140.84;;;21.72;30.23
4570;BME280;2297;51.442;6.996;2023-05-31T10:08:43;101139.81;;;21.75;29.21
4570;BME280;2297;51.442;6.996;2023-05-31T10:11:10;101133.50;;;21.92;28.56
4570;BME280;2297;51.442;6.996;2023-05-31T10:13:40;101138.09;;;21.90;28.74
4570;BME280;2297;51.442;6.996;2023-05-31T10:16:10;101133.06;;;22.00;28.45
4570;BME280;2297;51.442;6.996;2023-05-31T10:18:41;101137.94;;;22.09;28.16
4570;BME280;2297;51.442;6.996;2023-05-31T10:21:15;101126.13;;;21.96;27.45
4570;BME280;2297;51.442;6.996;2023-05-31T10:23:56;101124.06;;;22.17;27.19
4570;BME280;2297;51.442;6.996;2023-05-31T10:26:27;101119.47;;;22.19;26.73
4570;BME280;2297;51.442;6.996;2023-05-31T10:29:04;101118.16;;;22.26;26.73
4570;BME280;2297;51.442;6.996;2023-05-31T10:31:39;101122.47;;;22.44;26.93
4570;BME280;2297;51.442;6.996;2023-05-31T10:34:14;101116.13;;;22.46;26.63
4570;BME280;2297;51.442;6.996;2023-05-31T10:36:42;101114.44;;;22.59;26.09
4570;BME280;2297;51.442;6.996;2023-05-31T10:39:14;101116.19;;;22.60;26.65
4570;BME280;2297;51.442;6.996;2023-05-31T10:41:45;101112.19;;;22.67;26.56
4570;BME280;2297;51.442;6.996;2023-05-31T10:44:21;101111.75;;;22.59;26.66
4570;BME280;2297;51.442;6.996;2023-05-31T10:46:50;101103.78;;;22.57;26.83
4570;BME280;2297;51.442;6.996;2023-05-31T10:49:26;101094.47;;;22.63;26.51
4570;BME280;2297;51.442;6.996;2023-05-31T10:52:03;101090.50;;;22.70;26.57
4570;BME280;2297;51.442;6.996;2023-05-31T10:54:32;101100.16;;;22.89;26.49
4570;BME280;2297;51.442;6.996;2023-05-31T10:57:17;101107.66;;;22.84;26.49
4570;BME280;2297;51.442;6.996;2023-05-31T10:59:45;101105.00;;;22.68;26.80
4570;BME280;2297;51.442;6.996;2023-05-31T11:02:12;101100.16;;;22.89;26.94
4570;BME280;2297;51.442;6.996;2023-05-31T11:04:40;101098.81;;;22.96;27.00
4570;BME280;2297;51.442;6.996;2023-05-31T11:07:12;101094.69;;;23.05;26.74
4570;BME280;2297;51.442;6.996;2023-05-31T11:09:40;101087.38;;;23.07;26.95
4570;BME280;2297;51.442;6.996;2023-05-31T11:12:33;101093.66;;;23.07;26.91
4570;BME280;2297;51.442;6.996;2023-05-31T11:15:00;101086.16;;;23.13;26.93
4570;BME280;2297;51.442;6.996;2023-05-31T11:17:28;101079.66;;;23.31;26.89
4570;BME280;2297;51.442;6.996;2023-05-31T11:19:56;101082.31;;;23.17;26.57
4570;BME280;2297;51.442;6.996;2023-05-31T11:22:26;101085.03;;;23.31;26.63
4570;BME280;2297;51.442;6.996;2023-05-31T11:24:54;101078.50;;;23.35;26.21
4570;BME280;2297;51.442;6.996;2023-05-31T11:27:34;101074.41;;;23.57;26.11
4570;BME280;2297;51.442;6.996;2023-05-31T11:30:01;101080.00;;;23.54;26.25
4570;BME280;2297;51.442;6.996;2023-05-31T11:32:54;101070.66;;;23.59;26.79
4570;BME280;2297;51.442;6.996;2023-05-31T11:35:23;101073.22;;;23.75;26.13
4570;BME280;2297;51.442;6.996;2023-05-31T11:37:59;101073.78;;;23.95;26.16
4570;BME280;2297;51.442;6.996;2023-05-31T11:40:27;101074.16;;;24.03;26.65
4570;BME280;2297;51.442;6.996;2023-05-31T11:43:00;101067.19;;;24.14;26.75
4570;BME280;2297;51.442;6.996;2023-05-31T11:45:31;101068.97;;;23.86;26.79
4570;BME280;2297;51.442;6.996;2023-05-31T11:48:06;101063.16;;;24.06;26.08
4570;BME280;2297;51.442;6.996;2023-05-31T11:50:37;101056.38;;;24.14;26.59
4570;BME280;2297;51.442;6.996;2023-05-31T11:53:05;101054.44;;;24.16;26.44
4570;BME280;2297;51.442;6.996;2023-05-31T11:55:32;101051.94;;;24.40;26.16
4570;BME280;2297;51.442;6.996;2023-05-31T11:58:00;101046.09;;;24.46;26.11
4570;BME280;2297;51.442;6.996;2023-05-31T12:00:27;101040.53;;;24.62;25.68
4570;BME280;2297;51.442;6.996;2023-05-31T12:02:55;101044.13;;;24.63;25.51
4570;BME280;2297;51.442;6.996;2023-05-31T12:05:23;101032.75;;;24.70;25.89
4570;BME280;2297;51.442;6.996;2023-05-31T12:07:54;101038.19;;;24.57;26.00
4570;BME280;2297;51.442;6.996;2023-05-31T12:10:24;101045.03;;;24.49;25.71
4570;BME280;2297;51.442;6.996;2023-05-31T12:12:52;101034.91;;;24.52;25.46
4570;BME280;2297;51.442;6.996;2023-05-31T12:15:18;101026.31;;;24.60;25.72
4570;BME280;2297;51.442;6.996;2023-05-31T12:21:07;101014.00;;;24.95;24.60
4570;BME280;2297;51.442;6.996;2023-05-31T12:23:54;101029.56;;;24.65;24.85
4570;BME280;2297;51.442;6.996;2023-05-31T12:26:21;101024.78;;;24.82;25.70
4570;BME280;2297;51.442;6.996;2023-05-31T12:28:49;101017.84;;;25.03;25.97
4570;BME280;2297;51.442;6.996;2023-05-31T12:31:22;101029.31;;;25.07;25.82
4570;BME280;2297;51.442;6.996;2023-05-31T12:33:58;101030.84;;;25.24;25.03
4570;BME280;2297;51.442;6.996;2023-05-31T12:36:26;101010.19;;;25.23;24.92
4570;BME280;2297;51.442;6.996;2023-05-31T12:38:55;101018.94;;;25.14;24.92
4570;BME280;2297;51.442;6.996;2023-05-31T12:41:23;101011.16;;;25.35;24.78
4570;BME280;2297;51.442;6.996;2023-05-31T12:43:52;101001.94;;;25.37;24.54
4570;BME280;2297;51.442;6.996;2023-05-31T12:46:19;101022.22;;;25.56;25.14
4570;BME280;2297;51.442;6.996;2023-05-31T12:48:46;101008.94;;;25.53;24.83
4570;BME280;2297;51.442;6.996;2023-05-31T12:51:13;101013.88;;;25.59;24.72
4570;BME280;2297;51.442;6.996;2023-05-31T12:53:40;100999.81;;;25.67;24.89
4570;BME280;2297;51.442;6.996;2023-05-31T12:56:08;101000.81;;;25.90;24.04
4570;BME280;2297;51.442;6.996;2023-05-31T12:58:34;101005.53;;;25.99;23.98
4570;BME280;2297;51.442;6.996;2023-05-31T13:01:01;101001.22;;;25.97;23.56
4570;BME280;2297;51.442;6.996;2023-05-31T13:03:28;100985.91;;;26.08;23.77
4570;BME280;2297;51.442;6.996;2023-05-31T13:05:55;100997.00;;;26.17;24.14
4570;BME280;2297;51.442;6.996;2023-05-31T13:08:22;100992.81;;;26.13;24.22
4570;BME280;2297;51.442;6.996;2023-05-31T13:10:48;100993.22;;;26.31;24.41
4570;BME280;2297;51.442;6.996;2023-05-31T13:13:16;100995.50;;;26.37;24.43
4570;BME280;2297;51.442;6.996;2023-05-31T13:15:43;100994.19;;;26.54;24.19
4570;BME280;2297;51.442;6.996;2023-05-31T13:18:11;100984.84;;;26.69;23.67
4570;BME280;2297;51.442;6.996;2023-05-31T13:20:38;100985.84;;;26.68;23.63
4570;BME280;2297;51.442;6.996;2023-05-31T13:23:05;100980.19;;;26.94;23.85